sensor_id;sensor_type;location;lat;lon;timestamp;temperature;humidity
1381;DHT22;684;48.342;10.096;2023-06-04T00:02:09;15.80;17.30
1381;DHT22;684;48.342;10.096;2023-06-04T00:04:36;15.80;17.20
1381;DHT22;684;48.342;10.096;2023-06-04T00:07:03;15.80;17.40
1381;DHT22;684;48.342;10.096;2023-06-04T00:09:30;15.70;17.90
1381;DHT22;684;48.342;10.096;2023-06-04T00:11:57;15.70;17.20
1381;DHT22;684;48.342;10.096;2023-06-04T00:14:24;15.60;17.40
1381;DHT22;684;48.342;10.096;2023-06-04T00:16:52;15.70;17.30
1381;DHT22;684;48.342;10.096;2023-06-04T00:19:19;15.60;17.30
1381;DHT22;684;48.342;10.096;2023-06-04T00:21:46;15.60;17.30
1381;DHT22;684;48.342;10.096;2023-06-04T00:24:13;15.50;17.30
1381;DHT22;684;48.342;10.096;2023-06-04T00:26:40;15.50;17.10
1381;DHT22;684;48.342;10.096;2023-06-04T00:29:06;15.50;17.20
1381;DHT22;684;48.342;10.096;2023-06-04T00:31:33;15.40;17.10
1381;DHT22;684;48.342;10.096;2023-06-04T00:34:03;15.40;17.40
1381;DHT22;684;48.342;10.096;2023-06-04T00:36:30;15.40;17.20
1381;DHT22;684;48.342;10.096;2023-06-04T00:38:56;15.40;17.40
1381;DHT22;684;48.342;10.096;2023-06-04T00:41:23;15.30;17.20
1381;DHT22;684;48.342;10.096;2023-06-04T00:43:50;15.30;17.00
1381;DHT22;684;48.342;10.096;2023-06-04T00:46:21;15.30;17.00
1381;DHT22;684;48.342;10.096;2023-06-04T00:48:48;15.30;16.90
1381;DHT22;684;48.342;10.096;2023-06-04T00:51:17;15.20;16.90
1381;DHT22;684;48.342;10.096;2023-06-04T00:53:43;15.20;16.80
1381;DHT22;684;48.342;10.096;2023-06-04T00:56:11;15.10;16.80
1381;DHT22;684;48.342;10.096;2023-06-04T00:58:39;15.10;16.70
1381;DHT22;684;48.342;10.096;2023-06-04T01:01:12;15.10;16.70
1381;DHT22;684;48.342;10.096;2023-06-04T01:03:42;15.10;16.70
1381;DHT22;684;48.342;10.096;2023-06-04T01:06:18;15.00;16.80
1381;DHT22;684;48.342;10.096;2023-06-04T01:08:49;15.00;17.00
1381;DHT22;684;48.342;10.096;2023-06-04T01:11:30;15.00;17.00
1381;DHT22;684;48.342;10.096;2023-06-04T01:13:56;14.90;16.90
1381;DHT22;684;48.342;10.096;2023-06-04T01:16:23;14.80;16.90
1381;DHT22;684;48.342;10.096;2023-06-04T01:18:51;14.80;16.90
1381;DHT22;684;48.342;10.096;2023-06-04T01:21:19;14.80;16.70
1381;DHT22;684;48.342;10.096;2023-06-04T01:23:48;14.80;16.70
1381;DHT22;684;48.342;10.096;2023-06-04T01:26:24;14.80;16.90
1381;DHT22;684;48.342;10.096;2023-06-04T01:28:52;14.80;16.80
1381;DHT22;684;48.342;10.096;2023-06-04T01:31:20;14.70;16.50
1381;DHT22;684;48.342;10.096;2023-06-04T01:33:50;14.70;16.60
1381;DHT22;684;48.342;10.096;2023-06-04T01:36:18;14.60;16.90
1381;DHT22;684;48.342;10.096;2023-06-04T01:38:45;14.60;17.00
1381;DHT22;684;48.342;10.096;2023-06-04T01:41:12;14.60;16.90
1381;DHT22;684;48.342;10.096;2023-06-04T01:43:39;14.50;16.90
1381;DHT22;684;48.342;10.096;2023-06-04T01:46:06;14.50;16.90
1381;DHT22;684;48.342;10.096;2023-06-04T01:48:33;14.50;16.90
1381;DHT22;684;48.342;10.096;2023-06-04T01:51:00;14.40;16.90
1381;DHT22;684;48.342;10.096;2023-06-04T01:53:29;14.40;17.00
1381;DHT22;684;48.342;10.096;2023-06-04T01:55:56;14.30;16.90
1381;DHT22;684;48.342;10.096;2023-06-04T01:58:24;14.30;17.10
1381;DHT22;684;48.342;10.096;2023-06-04T02:00:52;14.30;16.90
1381;DHT22;684;48.342;10.096;2023-06-04T02:03:20;14.30;16.90
1381;DHT22;684;48.342;10.096;2023-06-04T02:05:47;14.20;16.80
1381;DHT22;684;48.342;10.096;2023-06-04T02:08:14;14.20;16.70
1381;DHT22;684;48.342;10.096;2023-06-04T02:10:54;14.20;16.90
1381;DHT22;684;48.342;10.096;2023-06-04T02:13:21;14.10;17.00
1381;DHT22;684;48.342;10.096;2023-06-04T02:15:48;14.10;16.90
1381;DHT22;684;48.342;10.096;2023-06-04T02:18:16;14.10;17.10
1381;DHT22;684;48.342;10.096;2023-06-04T02:20:44;14.00;17.10
1381;DHT22;684;48.342;10.096;2023-06-04T02:23:11;14.00;16.90
1381;DHT22;684;48.342;10.096;2023-06-04T02:25:38;13.90;16.90
1381;DHT22;684;48.342;10.096;2023-06-04T02:28:06;13.90;16.90
1381;DHT22;684;48.342;10.096;2023-06-04T02:30:33;13.90;16.80
1381;DHT22;684;48.342;10.096;2023-06-04T02:33:00;13.90;16.80
1381;DHT22;684;48.342;10.096;2023-06-04T02:35:27;13.90;16.60
1381;DHT22;684;48.342;10.096;2023-06-04T02:37:54;13.90;16.60
1381;DHT22;684;48.342;10.096;2023-06-04T02:40:22;13.90;16.70
1381;DHT22;684;48.342;10.096;2023-06-04T02:42:48;13.80;16.70
1381;DHT22;684;48.342;10.096;2023-06-04T02:45:16;13.80;16.90
1381;DHT22;684;48.342;10.096;2023-06-04T02:47:43;13.70;16.80
1381;DHT22;684;48.342;10.096;2023-06-04T02:50:11;13.70;16.60
1381;DHT22;684;48.342;10.096;2023-06-04T02:52:38;13.70;16.70
1381;DHT22;684;48.342;10.096;2023-06-04T02:55:06;13.60;16.70
1381;DHT22;684;48.342;10.096;2023-06-04T02:57:34;13.60;16.70
1381;DHT22;684;48.342;10.096;2023-06-04T03:00:01;13.60;16.70
1381;DHT22;684;48.342;10.096;2023-06-04T03:02:35;13.60;17.00
1381;DHT22;684;48.342;10.096;2023-06-04T03:05:02;13.60;16.70
1381;DHT22;684;48.342;10.096;2023-06-04T03:07:29;13.60;16.60
1381;DHT22;684;48.342;10.096;2023-06-04T03:09:56;13.60;16.70
1381;DHT22;684;48.342;10.096;2023-06-04T03:12:23;13.60;16.50
1381;DHT22;684;48.342;10.096;2023-06-04T03:14:50;13.60;16.50
1381;DHT22;684;48.342;10.096;2023-06-04T03:17:17;13.50;16.80
1381;DHT22;684;48.342;10.096;2023-06-04T03:19:45;13.50;16.70
1381;DHT22;684;48.342;10.096;2023-06-04T03:22:13;13.50;16.70
1381;DHT22;684;48.342;10.096;2023-06-04T03:24:41;13.50;16.60
1381;DHT22;684;48.342;10.096;2023-06-04T03:27:09;13.40;16.50
1381;DHT22;684;48.342;10.096;2023-06-04T03:29:36;13.40;16.30
1381;DHT22;684;48.342;10.096;2023-06-04T03:32:04;13.40;16.20
1381;DHT22;684;48.342;10.096;2023-06-04T03:34:31;13.40;16.20
1381;DHT22;684;48.342;10.096;2023-06-04T03:36:59;13.40;16.10
1381;DHT22;684;48.342;10.096;2023-06-04T03:39:26;13.50;16.10
1381;DHT22;684;48.342;10.096;2023-06-04T03:41:53;13.50;15.90
1381;DHT22;684;48.342;10.096;2023-06-04T03:44:21;13.50;16.10
1381;DHT22;684;48.342;10.096;2023-06-04T03:46:47;13.50;16.00
1381;DHT22;684;48.342;10.096;2023-06-04T03:49:14;13.50;15.90
1381;DHT22;684;48.342;10.096;2023-06-04T03:51:42;13.50;15.70
1381;DHT22;684;48.342;10.096;2023-06-04T03:54:10;13.50;15.60
1381;DHT22;684;48.342;10.096;2023-06-04T03:56:42;13.60;15.80
1381;DHT22;684;48.342;10.096;2023-06-04T03:59:09;13.60;15.40
1381;DHT22;684;48.342;10.096;2023-06-04T04:01:36;13.60;15.10
1381;DHT22;684;48.342;10.096;2023-06-04T04:04:03;13.60;14.90
1381;DHT22;684;48.342;10.096;2023-06-04T04:06:30;13.60;15.00
1381;DHT22;684;48.342;10.096;2023-06-04T04:08:57;13.60;15.10
1381;DHT22;684;48.342;10.096;2023-06-04T04:11:26;13.70;15.00
1381;DHT22;684;48.342;10.096;2023-06-04T04:13:52;13.70;14.80
1381;DHT22;684;48.342;10.096;2023-06-04T04:16:19;13.80;14.80
1381;DHT22;684;48.342;10.096;2023-06-04T04:18:46;13.80;14.90
1381;DHT22;684;48.342;10.096;2023-06-04T04:21:13;13.90;14.90
1381;DHT22;684;48.342;10.096;2023-06-04T04:23:39;13.90;14.90
1381;DHT22;684;48.342;10.096;2023-06-04T04:26:07;14.00;14.50
1381;DHT22;684;48.342;10.096;2023-06-04T04:28:35;14.20;14.30
1381;DHT22;684;48.342;10.096;2023-06-04T04:31:02;15.10;13.70
1381;DHT22;684;48.342;10.096;2023-06-04T04:33:29;16.40;11.30
1381;DHT22;684;48.342;10.096;2023-06-04T04:36:02;17.50;8.70
1381;DHT22;684;48.342;10.096;2023-06-04T04:38:29;18.50;6.30
1381;DHT22;684;48.342;10.096;2023-06-04T04:40:59;19.20;5.10
1381;DHT22;684;48.342;10.096;2023-06-04T04:43:30;19.70;4.60
1381;DHT22;684;48.342;10.096;2023-06-04T04:45:58;20.40;3.10
1381;DHT22;684;48.342;10.096;2023-06-04T04:48:25;20.70;1.80
1381;DHT22;684;48.342;10.096;2023-06-04T04:50:52;20.30;2.40
1381;DHT22;684;48.342;10.096;2023-06-04T04:53:19;19.80;3.30
1381;DHT22;684;48.342;10.096;2023-06-04T04:55:46;19.90;3.50
1381;DHT22;684;48.342;10.096;2023-06-04T04:58:12;21.20;2.30
1381;DHT22;684;48.342;10.096;2023-06-04T05:00:39;22.70;1.00
1381;DHT22;684;48.342;10.096;2023-06-04T05:03:07;23.90;1.00
1381;DHT22;684;48.342;10.096;2023-06-04T05:05:34;24.80;1.00
1381;DHT22;684;48.342;10.096;2023-06-04T05:08:01;25.70;1.00
1381;DHT22;684;48.342;10.096;2023-06-04T05:10:27;26.50;1.00
1381;DHT22;684;48.342;10.096;2023-06-04T05:12:56;27.20;1.00
1381;DHT22;684;48.342;10.096;2023-06-04T05:15:24;27.90;1.00
1381;DHT22;684;48.342;10.096;2023-06-04T05:17:52;28.50;1.00
1381;DHT22;684;48.342;10.096;2023-06-04T05:20:20;29.20;1.00
1381;DHT22;684;48.342;10.096;2023-06-04T05:22:48;29.80;1.00
1381;DHT22;684;48.342;10.096;2023-06-04T05:25:14;30.50;1.00
1381;DHT22;684;48.342;10.096;2023-06-04T05:27:41;31.20;1.00
1381;DHT22;684;48.342;10.096;2023-06-04T05:30:09;31.80;1.00
1381;DHT22;684;48.342;10.096;2023-06-04T05:32:36;32.40;1.00
1381;DHT22;684;48.342;10.096;2023-06-04T05:35:07;32.20;1.00
1381;DHT22;684;48.342;10.096;2023-06-04T05:37:35;31.30;1.00
1381;DHT22;684;48.342;10.096;2023-06-04T05:40:04;30.30;1.00
1381;DHT22;684;48.342;10.096;2023-06-04T05:42:32;28.80;1.00
1381;DHT22;684;48.342;10.096;2023-06-04T05:44:59;28.00;1.00
1381;DHT22;684;48.342;10.096;2023-06-04T05:47:27;27.10;1.00
1381;DHT22;684;48.342;10.096;2023-06-04T05:49:55;27.00;1.00
1381;DHT22;684;48.342;10.096;2023-06-04T05:52:22;26.40;1.00
1381;DHT22;684;48.342;10.096;2023-06-04T05:54:50;26.40;1.00
1381;DHT22;684;48.342;10.096;2023-06-04T05:57:17;28.10;1.00
1381;DHT22;684;48.342;10.096;2023-06-04T05:59:44;28.90;1.00
1381;DHT22;684;48.342;10.096;2023-06-04T06:02:11;28.90;1.00
1381;DHT22;684;48.342;10.096;2023-06-04T06:04:40;28.30;1.00
1381;DHT22;684;48.342;10.096;2023-06-04T06:07:06;27.90;1.00
1381;DHT22;684;48.342;10.096;2023-06-04T06:09:33;27.60;1.00
1381;DHT22;684;48.342;10.096;2023-06-04T06:12:02;29.40;1.00
1381;DHT22;684;48.342;10.096;2023-06-04T06:14:31;31.80;1.00
1381;DHT22;684;48.342;10.096;2023-06-04T06:16:57;33.90;1.00
1381;DHT22;684;48.342;10.096;2023-06-04T06:19:24;35.50;1.00
1381;DHT22;684;48.342;10.096;2023-06-04T06:21:51;36.80;1.00
1381;DHT22;684;48.342;10.096;2023-06-04T06:24:18;38.00;1.00
1381;DHT22;684;48.342;10.096;2023-06-04T06:26:45;39.00;1.00
1381;DHT22;684;48.342;10.096;2023-06-04T06:29:13;39.90;1.00
1381;DHT22;684;48.342;10.096;2023-06-04T06:31:40;40.60;1.00
1381;DHT22;684;48.342;10.096;2023-06-04T06:34:06;40.90;1.00
1381;DHT22;684;48.342;10.096;2023-06-04T06:36:33;41.60;1.00
1381;DHT22;684;48.342;10.096;2023-06-04T06:39:00;42.10;1.00
1381;DHT22;684;48.342;10.096;2023-06-04T06:41:27;42.70;1.00
1381;DHT22;684;48.342;10.096;2023-06-04T06:43:55;43.10;1.00
1381;DHT22;684;48.342;10.096;2023-06-04T06:46:23;43.50;1.00
1381;DHT22;684;48.342;10.096;2023-06-04T06:48:50;43.90;1.00
1381;DHT22;684;48.342;10.096;2023-06-04T06:51:17;44.20;1.00
1381;DHT22;684;48.342;10.096;2023-06-04T06:53:43;44.50;1.00
1381;DHT22;684;48.342;10.096;2023-06-04T06:56:10;43.50;1.00
1381;DHT22;684;48.342;10.096;2023-06-04T06:58:37;42.70;1.00
1381;DHT22;684;48.342;10.096;2023-06-04T07:01:04;43.30;1.00
1381;DHT22;684;48.342;10.096;2023-06-04T07:03:33;44.00;1.00
1381;DHT22;684;48.342;10.096;2023-06-04T07:06:00;44.80;1.00
1381;DHT22;684;48.342;10.096;2023-06-04T07:08:27;45.30;1.00
1381;DHT22;684;48.342;10.096;2023-06-04T07:10:54;45.60;1.00
1381;DHT22;684;48.342;10.096;2023-06-04T07:13:21;46.20;1.00
1381;DHT22;684;48.342;10.096;2023-06-04T07:15:48;46.60;1.00
1381;DHT22;684;48.342;10.096;2023-06-04T07:18:15;47.10;1.00
1381;DHT22;684;48.342;10.096;2023-06-04T07:20:43;47.60;1.00
1381;DHT22;684;48.342;10.096;2023-06-04T07:23:09;48.20;1.00
1381;DHT22;684;48.342;10.096;2023-06-04T07:25:36;48.40;1.00
1381;DHT22;684;48.342;10.096;2023-06-04T07:28:03;48.50;1.00
1381;DHT22;684;48.342;10.096;2023-06-04T07:30:30;48.40;1.00
1381;DHT22;684;48.342;10.096;2023-06-04T07:32:57;48.30;1.00
1381;DHT22;684;48.342;10.096;2023-06-04T07:35:24;48.60;1.00
1381;DHT22;684;48.342;10.096;2023-06-04T07:37:52;48.70;1.00
1381;DHT22;684;48.342;10.096;2023-06-04T07:40:19;48.60;1.00
1381;DHT22;684;48.342;10.096;2023-06-04T07:42:46;48.50;1.00
1381;DHT22;684;48.342;10.096;2023-06-04T07:45:13;48.80;1.00
1381;DHT22;684;48.342;10.096;2023-06-04T07:47:40;49.10;1.00
1381;DHT22;684;48.342;10.096;2023-06-04T07:50:08;49.30;1.00
1381;DHT22;684;48.342;10.096;2023-06-04T07:52:34;49.30;1.00
1381;DHT22;684;48.342;10.096;2023-06-04T07:55:03;49.50;1.00
1381;DHT22;684;48.342;10.096;2023-06-04T07:57:30;50.20;1.00
1381;DHT22;684;48.342;10.096;2023-06-04T07:59:57;50.90;1.00
1381;DHT22;684;48.342;10.096;2023-06-04T08:02:24;51.40;1.00
1381;DHT22;684;48.342;10.096;2023-06-04T08:04:51;51.70;1.00
1381;DHT22;684;48.342;10.096;2023-06-04T08:07:18;51.90;1.00
1381;DHT22;684;48.342;10.096;2023-06-04T08:09:44;52.30;1.00
1381;DHT22;684;48.342;10.096;2023-06-04T08:12:13;52.60;1.00
1381;DHT22;684;48.342;10.096;2023-06-04T08:14:41;52.90;1.00
1381;DHT22;684;48.342;10.096;2023-06-04T08:17:08;52.90;1.00
1381;DHT22;684;48.342;10.096;2023-06-04T08:19:34;53.00;1.00
1381;DHT22;684;48.342;10.096;2023-06-04T08:22:03;53.20;1.00
1381;DHT22;684;48.342;10.096;2023-06-04T08:24:30;53.30;1.00
1381;DHT22;684;48.342;10.096;2023-06-04T08:26:57;53.30;1.00
1381;DHT22;684;48.342;10.096;2023-06-04T08:29:25;53.40;1.00
1381;DHT22;684;48.342;10.096;2023-06-04T08:31:52;53.90;1.00
1381;DHT22;684;48.342;10.096;2023-06-04T08:34:19;54.30;1.00
1381;DHT22;684;48.342;10.096;2023-06-04T08:36:45;54.40;1.00
1381;DHT22;684;48.342;10.096;2023-06-04T08:39:13;54.30;1.00
1381;DHT22;684;48.342;10.096;2023-06-04T08:41:43;54.70;1.00
1381;DHT22;684;48.342;10.096;2023-06-04T08:44:10;54.80;1.00
1381;DHT22;684;48.342;10.096;2023-06-04T08:46:39;54.60;1.00
1381;DHT22;684;48.342;10.096;2023-06-04T08:49:07;54.90;1.00
1381;DHT22;684;48.342;10.096;2023-06-04T08:51:36;55.10;1.00
1381;DHT22;684;48.342;10.096;2023-06-04T08:54:04;55.20;1.00
1381;DHT22;684;48.342;10.096;2023-06-04T08:56:31;55.10;1.00
1381;DHT22;684;48.342;10.096;2023-06-04T08:59:01;55.30;1.00
1381;DHT22;684;48.342;10.096;2023-06-04T09:01:28;55.20;1.00
1381;DHT22;684;48.342;10.096;2023-06-04T09:03:56;55.10;1.00
1381;DHT22;684;48.342;10.096;2023-06-04T09:06:25;55.00;1.00
1381;DHT22;684;48.342;10.096;2023-06-04T09:08:54;54.00;1.00
1381;DHT22;684;48.342;10.096;2023-06-04T09:11:23;53.20;1.00
1381;DHT22;684;48.342;10.096;2023-06-04T09:13:53;52.60;1.00
1381;DHT22;684;48.342;10.096;2023-06-04T09:16:24;52.30;1.00
1381;DHT22;684;48.342;10.096;2023-06-04T09:18:51;51.70;1.00
1381;DHT22;684;48.342;10.096;2023-06-04T09:21:19;51.00;1.00
1381;DHT22;684;48.342;10.096;2023-06-04T09:23:47;50.40;1.00
1381;DHT22;684;48.342;10.096;2023-06-04T09:26:14;49.30;1.00
1381;DHT22;684;48.342;10.096;2023-06-04T09:28:41;47.50;1.00
1381;DHT22;684;48.342;10.096;2023-06-04T09:31:09;45.80;1.00
1381;DHT22;684;48.342;10.096;2023-06-04T09:33:42;43.90;1.00
1381;DHT22;684;48.342;10.096;2023-06-04T09:36:10;42.20;1.00
1381;DHT22;684;48.342;10.096;2023-06-04T09:38:38;40.60;1.00
1381;DHT22;684;48.342;10.096;2023-06-04T09:41:11;39.20;1.00
1381;DHT22;684;48.342;10.096;2023-06-04T09:43:38;37.90;1.00
1381;DHT22;684;48.342;10.096;2023-06-04T09:46:09;36.90;1.00
1381;DHT22;684;48.342;10.096;2023-06-04T09:48:36;36.10;1.00
1381;DHT22;684;48.342;10.096;2023-06-04T09:51:07;35.30;1.00
1381;DHT22;684;48.342;10.096;2023-06-04T09:53:34;34.60;1.00
1381;DHT22;684;48.342;10.096;2023-06-04T09:56:04;34.00;1.00
1381;DHT22;684;48.342;10.096;2023-06-04T09:58:32;33.40;1.00
1381;DHT22;684;48.342;10.096;2023-06-04T10:01:00;32.90;1.00
1381;DHT22;684;48.342;10.096;2023-06-04T10:03:31;32.40;1.00
1381;DHT22;684;48.342;10.096;2023-06-04T10:05:58;32.20;1.00
1381;DHT22;684;48.342;10.096;2023-06-04T10:08:26;31.90;1.00
1381;DHT22;684;48.342;10.096;2023-06-04T10:10:55;31.60;1.00
1381;DHT22;684;48.342;10.096;2023-06-04T10:13:24;31.20;1.00
1381;DHT22;684;48.342;10.096;2023-06-04T10:15:54;30.70;1.00
1381;DHT22;684;48.342;10.096;2023-06-04T10:18:23;30.40;1.00
1381;DHT22;684;48.342;10.096;2023-06-04T10:20:52;30.20;1.00
1381;DHT22;684;48.342;10.096;2023-06-04T10:23:20;30.10;1.00
1381;DHT22;684;48.342;10.096;2023-06-04T10:25:49;29.90;1.00
1381;DHT22;684;48.342;10.096;2023-06-04T10:28:18;29.50;1.00
1381;DHT22;684;48.342;10.096;2023-06-04T10:30:46;29.40;1.00
1381;DHT22;684;48.342;10.096;2023-06-04T10:33:16;29.30;1.00
1381;DHT22;684;48.342;10.096;2023-06-04T10:35:43;29.10;1.00
1381;DHT22;684;48.342;10.096;2023-06-04T10:38:12;28.80;1.00
1381;DHT22;684;48.342;10.096;2023-06-04T10:40:39;28.50;1.00
1381;DHT22;684;48.342;10.096;2023-06-04T10:43:07;28.40;1.00
1381;DHT22;684;48.342;10.096;2023-06-04T10:45:34;28.20;1.00
1381;DHT22;684;48.342;10.096;2023-06-04T10:48:02;28.20;1.00
1381;DHT22;684;48.342;10.096;2023-06-04T10:50:30;28.00;1.00
1381;DHT22;684;48.342;10.096;2023-06-04T10:52:57;27.80;1.00
1381;DHT22;684;48.342;10.096;2023-06-04T10:55:24;27.80;1.00
1381;DHT22;684;48.342;10.096;2023-06-04T10:57:53;27.80;1.00
1381;DHT22;684;48.342;10.096;2023-06-04T11:00:20;27.90;1.00
1381;DHT22;684;48.342;10.096;2023-06-04T11:02:51;27.90;1.00
1381;DHT22;684;48.342;10.096;2023-06-04T11:05:20;28.00;1.00
1381;DHT22;684;48.342;10.096;2023-06-04T11:07:48;27.90;1.00
1381;DHT22;684;48.342;10.096;2023-06-04T11:10:17;28.00;1.00
1381;DHT22;684;48.342;10.096;2023-06-04T11:12:45;27.90;1.00
1381;DHT22;684;48.342;10.096;2023-06-04T11:15:12;27.80;1.00
1381;DHT22;684;48.342;10.096;2023-06-04T11:17:49;27.90;1.00
1381;DHT22;684;48.342;10.096;2023-06-04T11:20:16;28.00;1.00
1381;DHT22;684;48.342;10.096;2023-06-04T11:22:51;28.00;1.00
1381;DHT22;684;48.342;10.096;2023-06-04T11:25:18;28.00;1.00
1381;DHT22;684;48.342;10.096;2023-06-04T11:27:47;27.90;1.00
1381;DHT22;684;48.342;10.096;2023-06-04T11:30:15;27.70;1.00
1381;DHT22;684;48.342;10.096;2023-06-04T11:32:42;27.50;1.00
1381;DHT22;684;48.342;10.096;2023-06-04T11:35:09;27.50;1.00
1381;DHT22;684;48.342;10.096;2023-06-04T11:37:37;27.50;1.00
1381;DHT22;684;48.342;10.096;2023-06-04T11:40:15;27.40;1.00
1381;DHT22;684;48.342;10.096;2023-06-04T11:42:42;27.00;1.00
1381;DHT22;684;48.342;10.096;2023-06-04T11:45:10;26.90;1.00
1381;DHT22;684;48.342;10.096;2023-06-04T11:47:37;26.70;1.00
1381;DHT22;684;48.342;10.096;2023-06-04T11:50:05;26.80;1.00
1381;DHT22;684;48.342;10.096;2023-06-04T11:52:32;26.90;1.00
1381;DHT22;684;48.342;10.096;2023-06-04T11:54:59;26.90;1.00
1381;DHT22;684;48.342;10.096;2023-06-04T11:57:28;26.80;1.00
1381;DHT22;684;48.342;10.096;2023-06-04T11:59:55;26.80;1.00
1381;DHT22;684;48.342;10.096;2023-06-04T12:02:22;26.70;1.00
1381;DHT22;684;48.342;10.096;2023-06-04T12:04:49;26.80;1.00
1381;DHT22;684;48.342;10.096;2023-06-04T12:07:19;26.80;1.00
1381;DHT22;684;48.342;10.096;2023-06-04T12:09:49;26.90;1.00
1381;DHT22;684;48.342;10.096;2023-06-04T12:12:22;27.10;1.00
1381;DHT22;684;48.342;10.096;2023-06-04T12:14:57;27.10;1.00
1381;DHT22;684;48.342;10.096;2023-06-04T12:17:24;27.20;1.00
1381;DHT22;684;48.342;10.096;2023-06-04T12:19:52;27.10;1.00
1381;DHT22;684;48.342;10.096;2023-06-04T12:22:20;27.00;1.00
1381;DHT22;684;48.342;10.096;2023-06-04T12:24:48;27.00;1.00
1381;DHT22;684;48.342;10.096;2023-06-04T12:27:19;27.00;1.00
1381;DHT22;684;48.342;10.096;2023-06-04T12:29:54;27.00;1.00
1381;DHT22;684;48.342;10.096;2023-06-04T12:32:23;27.10;1.00
1381;DHT22;684;48.342;10.096;2023-06-04T12:34:49;27.10;1.00
1381;DHT22;684;48.342;10.096;2023-06-04T12:37:16;27.00;1.00
1381;DHT22;684;48.342;10.096;2023-06-04T12:39:43;27.00;1.00
1381;DHT22;684;48.342;10.096;2023-06-04T12:42:10;27.00;1.00
1381;DHT22;684;48.342;10.096;2023-06-04T12:44:37;26.90;1.00
1381;DHT22;684;48.342;10.096;2023-06-04T12:47:05;26.70;1.00
1381;DHT22;684;48.342;10.096;2023-06-04T12:49:33;26.50;1.00
1381;DHT22;684;48.342;10.096;2023-06-04T12:52:00;26.40;1.00
1381;DHT22;684;48.342;10.096;2023-06-04T12:54:27;26.40;1.00
1381;DHT22;684;48.342;10.096;2023-06-04T12:56:54;26.30;1.00
1381;DHT22;684;48.342;10.096;2023-06-04T12:59:22;26.30;1.00
1381;DHT22;684;48.342;10.096;2023-06-04T13:01:49;26.20;1.00
1381;DHT22;684;48.342;10.096;2023-06-04T13:04:16;26.30;1.00
1381;DHT22;684;48.342;10.096;2023-06-04T13:06:44;26.40;1.00
1381;DHT22;684;48.342;10.096;2023-06-04T13:09:12;26.30;1.00
1381;DHT22;684;48.342;10.096;2023-06-04T13:11:41;26.40;1.00
1381;DHT22;684;48.342;10.096;2023-06-04T13:14:11;26.40;1.00
1381;DHT22;684;48.342;10.096;2023-06-04T13:16:38;26.50;1.00
1381;DHT22;684;48.342;10.096;2023-06-04T13:19:05;26.60;1.00
1381;DHT22;684;48.342;10.096;2023-06-04T13:21:33;26.60;1.00
1381;DHT22;684;48.342;10.096;2023-06-04T13:24:01;26.70;1.00
1381;DHT22;684;48.342;10.096;2023-06-04T13:26:28;26.80;1.00
1381;DHT22;684;48.342;10.096;2023-06-04T13:28:55;26.80;1.00
1381;DHT22;684;48.342;10.096;2023-06-04T13:31:22;26.80;1.00
1381;DHT22;684;48.342;10.096;2023-06-04T13:33:49;26.80;1.00
1381;DHT22;684;48.342;10.096;2023-06-04T13:36:15;26.90;1.00
1381;DHT22;684;48.342;10.096;2023-06-04T13:38:42;26.90;1.00
1381;DHT22;684;48.342;10.096;2023-06-04T13:41:10;26.90;1.00
1381;DHT22;684;48.342;10.096;2023-06-04T13:43:37;26.90;1.00
1381;DHT22;684;48.342;10.096;2023-06-04T13:46:04;26.90;1.00
1381;DHT22;684;48.342;10.096;2023-06-04T13:48:31;26.80;1.00
1381;DHT22;684;48.342;10.096;2023-06-04T13:50:57;26.90;1.00
1381;DHT22;684;48.342;10.096;2023-06-04T13:53:24;26.90;1.00
1381;DHT22;684;48.342;10.096;2023-06-04T13:55:52;26.90;1.00
1381;DHT22;684;48.342;10.096;2023-06-04T13:58:24;26.80;1.00
1381;DHT22;684;48.342;10.096;2023-06-04T14:00:51;26.60;1.00
1381;DHT22;684;48.342;10.096;2023-06-04T14:03:18;26.50;1.00
1381;DHT22;684;48.342;10.096;2023-06-04T14:05:45;26.30;1.00
1381;DHT22;684;48.342;10.096;2023-06-04T14:08:11;26.20;1.00
1381;DHT22;684;48.342;10.096;2023-06-04T14:10:38;26.10;1.00
1381;DHT22;684;48.342;10.096;2023-06-04T14:13:07;26.00;1.00
1381;DHT22;684;48.342;10.096;2023-06-04T14:15:35;25.90;1.00
1381;DHT22;684;48.342;10.096;2023-06-04T14:18:03;25.80;1.00
1381;DHT22;684;48.342;10.096;2023-06-04T14:20:31;25.80;1.00
1381;DHT22;684;48.342;10.096;2023-06-04T14:22:58;25.80;1.00
1381;DHT22;684;48.342;10.096;2023-06-04T14:25:25;25.70;1.00
1381;DHT22;684;48.342;10.096;2023-06-04T14:27:52;25.70;1.00
1381;DHT22;684;48.342;10.096;2023-06-04T14:30:18;25.70;1.00
1381;DHT22;684;48.342;10.096;2023-06-04T14:32:46;25.60;1.00
1381;DHT22;684;48.342;10.096;2023-06-04T14:35:13;25.50;1.00
1381;DHT22;684;48.342;10.096;2023-06-04T14:37:40;25.40;1.00
1381;DHT22;684;48.342;10.096;2023-06-04T14:40:08;25.40;1.00
1381;DHT22;684;48.342;10.096;2023-06-04T14:42:34;25.30;1.00
1381;DHT22;684;48.342;10.096;2023-06-04T14:45:02;25.20;1.00
1381;DHT22;684;48.342;10.096;2023-06-04T14:47:28;25.10;1.00
1381;DHT22;684;48.342;10.096;2023-06-04T14:49:57;25.10;1.00
1381;DHT22;684;48.342;10.096;2023-06-04T14:52:23;25.10;1.00
1381;DHT22;684;48.342;10.096;2023-06-04T14:54:50;25.00;1.00
1381;DHT22;684;48.342;10.096;2023-06-04T14:57:17;25.00;1.00
1381;DHT22;684;48.342;10.096;2023-06-04T14:59:44;25.00;1.00
1381;DHT22;684;48.342;10.096;2023-06-04T15:02:11;25.00;1.00
1381;DHT22;684;48.342;10.096;2023-06-04T15:04:38;25.00;1.00
1381;DHT22;684;48.342;10.096;2023-06-04T15:07:10;25.00;1.00
1381;DHT22;684;48.342;10.096;2023-06-04T15:09:37;25.00;1.00
1381;DHT22;684;48.342;10.096;2023-06-04T15:12:04;25.10;1.00
1381;DHT22;684;48.342;10.096;2023-06-04T15:14:31;25.10;1.00
1381;DHT22;684;48.342;10.096;2023-06-04T15:16:58;25.10;1.00
1381;DHT22;684;48.342;10.096;2023-06-04T15:19:24;25.10;1.00
1381;DHT22;684;48.342;10.096;2023-06-04T15:21:51;25.10;1.00
1381;DHT22;684;48.342;10.096;2023-06-04T15:24:19;25.10;1.00
1381;DHT22;684;48.342;10.096;2023-06-04T15:26:47;25.00;1.00
1381;DHT22;684;48.342;10.096;2023-06-04T15:29:13;25.10;1.00
1381;DHT22;684;48.342;10.096;2023-06-04T15:31:40;25.00;1.00
1381;DHT22;684;48.342;10.096;2023-06-04T15:34:07;25.10;1.00
1381;DHT22;684;48.342;10.096;2023-06-04T15:36:34;25.00;1.00
1381;DHT22;684;48.342;10.096;2023-06-04T15:39:02;25.10;1.00
1381;DHT22;684;48.342;10.096;2023-06-04T15:41:31;25.00;1.00
1381;DHT22;684;48.342;10.096;2023-06-04T15:43:57;25.00;1.00
1381;DHT22;684;48.342;10.096;2023-06-04T15:46:24;25.00;1.00
1381;DHT22;684;48.342;10.096;2023-06-04T15:48:51;24.90;1.00
1381;DHT22;684;48.342;10.096;2023-06-04T15:51:18;24.90;1.00
1381;DHT22;684;48.342;10.096;2023-06-04T15:53:44;24.90;1.00
1381;DHT22;684;48.342;10.096;2023-06-04T15:56:11;24.90;1.00
1381;DHT22;684;48.342;10.096;2023-06-04T15:58:40;24.90;1.00
1381;DHT22;684;48.342;10.096;2023-06-04T16:01:06;24.80;1.00
1381;DHT22;684;48.342;10.096;2023-06-04T16:03:33;24.80;1.00
1381;DHT22;684;48.342;10.096;2023-06-04T16:06:01;24.80;1.00
1381;DHT22;684;48.342;10.096;2023-06-04T16:08:28;24.80;1.00
1381;DHT22;684;48.342;10.096;2023-06-04T16:10:54;24.70;1.00
1381;DHT22;684;48.342;10.096;2023-06-04T16:13:21;24.70;1.00
1381;DHT22;684;48.342;10.096;2023-06-04T16:15:49;24.60;1.00